Terminal Aerodrome Forecast
Issued by NWS

Home | Current Version | Previous Version | Text Only | Print | Product List | Glossary On
Versions: 1 2 3 4 5 6 7 8 9 10 11 12 13 14 15 16 17 18 19 20 21 22 23
000
FTUS43 KDMX 260109 AAB
TAFMCW
TAF AMD
KMCW 260109Z 2601/2624 05015KT 6SM BR OVC007
     FM260400 06010KT 3SM -DZ OVC005
     FM261000 02007KT 1/2SM -DZ FG OVC003
     FM261500 01007KT 1 1/2SM BR OVC008
     FM261900 36008KT P6SM OVC010
     FM262300 35005KT P6SM OVC018=

USA.gov is the U.S. government's official web portal to all federal, state and local government web resources and services.